Terminal Aerodrome Forecast
Issued by NWS Sterling, VA

Home | Current Version | Previous Version | Text Only | Print | Product List | Glossary On
Versions: 1 2 3 4 5 6 7 8 9 10 11 12 13 14 15 16 17 18 19 20 21 22 23
709
FTUS41 KLWX 060539
TAFDCA
TAF
KDCA 060539Z 0606/0706 04004KT P6SM OVC150
     FM061300 09005KT 6SM -RAPL SCT008 OVC050
     FM061600 09007KT 5SM -RA BKN008 OVC050
     FM062100 VRB04KT 5SM -RA BKN004 OVC008=

USA.gov is the U.S. government's official web portal to all federal, state and local government web resources and services.